sensor_id;sensor_type;location;lat;lon;timestamp;temperature;humidity
32428;DHT22;18882;50.952;4.366;2022-08-14T00:00:44;21.90;97.00
32428;DHT22;18882;50.952;4.366;2022-08-14T00:03:21;22.00;97.20
32428;DHT22;18882;50.952;4.366;2022-08-14T00:05:47;21.90;97.30
32428;DHT22;18882;50.952;4.366;2022-08-14T00:08:13;21.80;97.70
32428;DHT22;18882;50.952;4.366;2022-08-14T00:10:39;21.70;98.00
32428;DHT22;18882;50.952;4.366;2022-08-14T00:13:05;21.70;98.00
32428;DHT22;18882;50.952;4.366;2022-08-14T00:15:35;21.60;98.00
32428;DHT22;18882;50.952;4.366;2022-08-14T00:18:02;21.60;98.00
32428;DHT22;18882;50.952;4.366;2022-08-14T00:20:31;21.50;98.20
32428;DHT22;18882;50.952;4.366;2022-08-14T00:22:58;21.50;98.20
32428;DHT22;18882;50.952;4.366;2022-08-14T00:25:25;21.50;98.40
32428;DHT22;18882;50.952;4.366;2022-08-14T00:27:51;21.50;98.60
32428;DHT22;18882;50.952;4.366;2022-08-14T00:30:17;21.40;98.60
32428;DHT22;18882;50.952;4.366;2022-08-14T00:32:43;21.30;98.90
32428;DHT22;18882;50.952;4.366;2022-08-14T00:35:09;21.30;98.90
32428;DHT22;18882;50.952;4.366;2022-08-14T00:37:38;21.30;99.10
32428;DHT22;18882;50.952;4.366;2022-08-14T00:40:05;21.30;99.10
32428;DHT22;18882;50.952;4.366;2022-08-14T00:42:31;21.40;99.20
32428;DHT22;18882;50.952;4.366;2022-08-14T00:44:56;21.40;99.00
32428;DHT22;18882;50.952;4.366;2022-08-14T00:47:22;21.40;99.30
32428;DHT22;18882;50.952;4.366;2022-08-14T00:49:50;21.50;99.00
32428;DHT22;18882;50.952;4.366;2022-08-14T00:52:16;21.50;98.90
32428;DHT22;18882;50.952;4.366;2022-08-14T00:54:42;21.50;99.10
32428;DHT22;18882;50.952;4.366;2022-08-14T00:57:09;21.50;99.20
32428;DHT22;18882;50.952;4.366;2022-08-14T00:59:35;21.50;99.30
32428;DHT22;18882;50.952;4.366;2022-08-14T01:02:01;21.30;99.50
32428;DHT22;18882;50.952;4.366;2022-08-14T01:04:29;21.30;99.70
32428;DHT22;18882;50.952;4.366;2022-08-14T01:06:57;21.10;99.90
32428;DHT22;18882;50.952;4.366;2022-08-14T01:09:23;21.00;99.90
32428;DHT22;18882;50.952;4.366;2022-08-14T01:11:50;21.20;99.90
32428;DHT22;18882;50.952;4.366;2022-08-14T01:14:17;21.30;99.90
32428;DHT22;18882;50.952;4.366;2022-08-14T01:16:44;21.30;99.70
32428;DHT22;18882;50.952;4.366;2022-08-14T01:19:10;21.30;99.80
32428;DHT22;18882;50.952;4.366;2022-08-14T01:21:54;21.20;99.90
32428;DHT22;18882;50.952;4.366;2022-08-14T01:24:21;21.20;99.90
32428;DHT22;18882;50.952;4.366;2022-08-14T01:26:47;21.20;99.90
32428;DHT22;18882;50.952;4.366;2022-08-14T01:29:13;21.20;99.90
32428;DHT22;18882;50.952;4.366;2022-08-14T01:31:39;21.20;99.90
32428;DHT22;18882;50.952;4.366;2022-08-14T01:34:14;21.10;99.90
32428;DHT22;18882;50.952;4.366;2022-08-14T01:36:40;21.00;99.90
32428;DHT22;18882;50.952;4.366;2022-08-14T01:39:09;21.00;99.90
32428;DHT22;18882;50.952;4.366;2022-08-14T01:41:35;21.00;99.90
32428;DHT22;18882;50.952;4.366;2022-08-14T01:44:05;20.90;99.90
32428;DHT22;18882;50.952;4.366;2022-08-14T01:46:34;20.90;99.90
32428;DHT22;18882;50.952;4.366;2022-08-14T01:49:01;20.90;99.90
32428;DHT22;18882;50.952;4.366;2022-08-14T01:51:30;20.90;99.90
32428;DHT22;18882;50.952;4.366;2022-08-14T01:53:59;20.90;99.90
32428;DHT22;18882;50.952;4.366;2022-08-14T01:56:29;21.00;99.90
32428;DHT22;18882;50.952;4.366;2022-08-14T01:59:07;20.90;99.90
32428;DHT22;18882;50.952;4.366;2022-08-14T02:01:33;20.90;99.90
32428;DHT22;18882;50.952;4.366;2022-08-14T02:04:01;20.90;99.90
32428;DHT22;18882;50.952;4.366;2022-08-14T02:06:27;20.80;99.90
32428;DHT22;18882;50.952;4.366;2022-08-14T02:08:53;20.80;99.90
32428;DHT22;18882;50.952;4.366;2022-08-14T02:11:19;20.80;99.90
32428;DHT22;18882;50.952;4.366;2022-08-14T02:14:00;20.80;99.90
32428;DHT22;18882;50.952;4.366;2022-08-14T02:16:29;20.80;99.90
32428;DHT22;18882;50.952;4.366;2022-08-14T02:19:00;20.70;99.90
32428;DHT22;18882;50.952;4.366;2022-08-14T02:21:27;20.70;99.90
32428;DHT22;18882;50.952;4.366;2022-08-14T02:23:56;20.70;99.90
32428;DHT22;18882;50.952;4.366;2022-08-14T02:26:28;20.60;99.90
32428;DHT22;18882;50.952;4.366;2022-08-14T02:28:57;20.50;99.90
32428;DHT22;18882;50.952;4.366;2022-08-14T02:31:28;20.60;99.90
32428;DHT22;18882;50.952;4.366;2022-08-14T02:34:03;20.60;99.90
32428;DHT22;18882;50.952;4.366;2022-08-14T02:36:29;20.70;99.90
32428;DHT22;18882;50.952;4.366;2022-08-14T02:38:55;20.60;99.90
32428;DHT22;18882;50.952;4.366;2022-08-14T02:41:21;20.60;99.90
32428;DHT22;18882;50.952;4.366;2022-08-14T02:43:48;20.60;99.90
32428;DHT22;18882;50.952;4.366;2022-08-14T02:46:14;20.70;99.90
32428;DHT22;18882;50.952;4.366;2022-08-14T02:48:41;20.60;99.90
32428;DHT22;18882;50.952;4.366;2022-08-14T02:51:12;20.60;99.90
32428;DHT22;18882;50.952;4.366;2022-08-14T02:53:44;20.50;99.90
32428;DHT22;18882;50.952;4.366;2022-08-14T02:56:13;20.40;99.90
32428;DHT22;18882;50.952;4.366;2022-08-14T02:58:46;20.30;99.90
32428;DHT22;18882;50.952;4.366;2022-08-14T03:01:13;20.30;99.90
32428;DHT22;18882;50.952;4.366;2022-08-14T03:03:40;20.30;99.90
32428;DHT22;18882;50.952;4.366;2022-08-14T03:06:07;20.30;99.90
32428;DHT22;18882;50.952;4.366;2022-08-14T03:08:34;20.20;99.90
32428;DHT22;18882;50.952;4.366;2022-08-14T03:11:06;20.20;99.90
32428;DHT22;18882;50.952;4.366;2022-08-14T03:13:35;20.20;99.90
32428;DHT22;18882;50.952;4.366;2022-08-14T03:16:05;20.20;99.90
32428;DHT22;18882;50.952;4.366;2022-08-14T03:18:31;20.10;99.90
32428;DHT22;18882;50.952;4.366;2022-08-14T03:21:05;20.00;99.90
32428;DHT22;18882;50.952;4.366;2022-08-14T03:23:32;19.90;99.90
32428;DHT22;18882;50.952;4.366;2022-08-14T03:25:59;19.90;99.90
32428;DHT22;18882;50.952;4.366;2022-08-14T03:28:25;19.80;99.90
32428;DHT22;18882;50.952;4.366;2022-08-14T03:30:54;19.90;99.90
32428;DHT22;18882;50.952;4.366;2022-08-14T03:33:20;19.90;99.90
32428;DHT22;18882;50.952;4.366;2022-08-14T03:35:46;19.90;99.90
32428;DHT22;18882;50.952;4.366;2022-08-14T03:38:12;19.90;99.90
32428;DHT22;18882;50.952;4.366;2022-08-14T03:40:40;19.80;99.90
32428;DHT22;18882;50.952;4.366;2022-08-14T03:43:06;19.80;99.90
32428;DHT22;18882;50.952;4.366;2022-08-14T03:45:37;19.70;99.90
32428;DHT22;18882;50.952;4.366;2022-08-14T03:48:13;19.90;99.90
32428;DHT22;18882;50.952;4.366;2022-08-14T03:50:40;19.50;99.90
32428;DHT22;18882;50.952;4.366;2022-08-14T03:53:08;18.90;99.90
32428;DHT22;18882;50.952;4.366;2022-08-14T03:55:35;18.50;99.90
32428;DHT22;18882;50.952;4.366;2022-08-14T03:58:04;18.30;99.90
32428;DHT22;18882;50.952;4.366;2022-08-14T04:00:30;18.30;99.90
32428;DHT22;18882;50.952;4.366;2022-08-14T04:02:56;18.30;99.90
32428;DHT22;18882;50.952;4.366;2022-08-14T04:05:22;18.50;99.90
32428;DHT22;18882;50.952;4.366;2022-08-14T04:07:47;18.60;99.90
32428;DHT22;18882;50.952;4.366;2022-08-14T04:10:13;18.40;99.90
32428;DHT22;18882;50.952;4.366;2022-08-14T04:12:39;18.60;99.90
32428;DHT22;18882;50.952;4.366;2022-08-14T04:15:06;18.40;99.90
32428;DHT22;18882;50.952;4.366;2022-08-14T04:17:32;18.50;99.90
32428;DHT22;18882;50.952;4.366;2022-08-14T04:19:59;18.50;99.90
32428;DHT22;18882;50.952;4.366;2022-08-14T04:22:29;18.70;99.90
32428;DHT22;18882;50.952;4.366;2022-08-14T04:24:56;18.70;99.90
32428;DHT22;18882;50.952;4.366;2022-08-14T04:27:22;18.70;99.90
32428;DHT22;18882;50.952;4.366;2022-08-14T04:29:48;18.50;99.90
32428;DHT22;18882;50.952;4.366;2022-08-14T04:32:14;18.70;99.90
32428;DHT22;18882;50.952;4.366;2022-08-14T04:34:56;18.80;99.90
32428;DHT22;18882;50.952;4.366;2022-08-14T04:37:23;18.90;99.90
32428;DHT22;18882;50.952;4.366;2022-08-14T04:40:09;18.90;99.90
32428;DHT22;18882;50.952;4.366;2022-08-14T04:42:54;18.90;99.90
32428;DHT22;18882;50.952;4.366;2022-08-14T04:45:38;18.90;99.90
32428;DHT22;18882;50.952;4.366;2022-08-14T04:48:09;19.00;99.90
32428;DHT22;18882;50.952;4.366;2022-08-14T04:50:44;19.00;99.90
32428;DHT22;18882;50.952;4.366;2022-08-14T04:53:16;19.10;99.90
32428;DHT22;18882;50.952;4.366;2022-08-14T04:55:44;19.10;99.90
32428;DHT22;18882;50.952;4.366;2022-08-14T04:58:14;19.10;99.90
32428;DHT22;18882;50.952;4.366;2022-08-14T05:00:42;19.10;99.90
32428;DHT22;18882;50.952;4.366;2022-08-14T05:03:09;19.10;99.90
32428;DHT22;18882;50.952;4.366;2022-08-14T05:05:35;19.10;99.90
32428;DHT22;18882;50.952;4.366;2022-08-14T05:08:08;19.00;99.90
32428;DHT22;18882;50.952;4.366;2022-08-14T05:10:39;19.00;99.90
32428;DHT22;18882;50.952;4.366;2022-08-14T05:13:06;19.10;99.90
32428;DHT22;18882;50.952;4.366;2022-08-14T05:15:35;19.20;99.90
32428;DHT22;18882;50.952;4.366;2022-08-14T05:18:10;19.20;99.90
32428;DHT22;18882;50.952;4.366;2022-08-14T05:20:39;19.40;99.90
32428;DHT22;18882;50.952;4.366;2022-08-14T05:23:05;19.30;99.90
32428;DHT22;18882;50.952;4.366;2022-08-14T05:25:33;18.90;99.90
32428;DHT22;18882;50.952;4.366;2022-08-14T05:28:13;18.80;99.90
32428;DHT22;18882;50.952;4.366;2022-08-14T05:30:44;18.80;99.90
32428;DHT22;18882;50.952;4.366;2022-08-14T05:33:11;18.60;99.90
32428;DHT22;18882;50.952;4.366;2022-08-14T05:35:37;18.40;99.90
32428;DHT22;18882;50.952;4.366;2022-08-14T05:38:07;18.40;99.90
32428;DHT22;18882;50.952;4.366;2022-08-14T05:40:33;18.40;99.90
32428;DHT22;18882;50.952;4.366;2022-08-14T05:43:00;18.50;99.90
32428;DHT22;18882;50.952;4.366;2022-08-14T05:45:25;18.40;99.90
32428;DHT22;18882;50.952;4.366;2022-08-14T05:47:51;18.60;99.90
32428;DHT22;18882;50.952;4.366;2022-08-14T05:50:17;18.80;99.90
32428;DHT22;18882;50.952;4.366;2022-08-14T05:52:42;19.10;99.90
32428;DHT22;18882;50.952;4.366;2022-08-14T05:55:10;19.30;99.90
32428;DHT22;18882;50.952;4.366;2022-08-14T05:57:47;19.40;99.90
32428;DHT22;18882;50.952;4.366;2022-08-14T06:00:15;19.50;99.90
32428;DHT22;18882;50.952;4.366;2022-08-14T06:02:41;19.40;99.90
32428;DHT22;18882;50.952;4.366;2022-08-14T06:05:07;19.50;99.90
32428;DHT22;18882;50.952;4.366;2022-08-14T06:07:35;19.60;99.90
32428;DHT22;18882;50.952;4.366;2022-08-14T06:10:01;19.70;99.90
32428;DHT22;18882;50.952;4.366;2022-08-14T06:12:27;19.80;99.90
32428;DHT22;18882;50.952;4.366;2022-08-14T06:14:52;20.00;99.90
32428;DHT22;18882;50.952;4.366;2022-08-14T06:17:18;20.10;99.90
32428;DHT22;18882;50.952;4.366;2022-08-14T06:19:44;20.10;99.90
32428;DHT22;18882;50.952;4.366;2022-08-14T06:22:09;20.20;99.90
32428;DHT22;18882;50.952;4.366;2022-08-14T06:24:35;20.20;99.90
32428;DHT22;18882;50.952;4.366;2022-08-14T06:27:02;20.30;99.90
32428;DHT22;18882;50.952;4.366;2022-08-14T06:29:28;20.50;99.90
32428;DHT22;18882;50.952;4.366;2022-08-14T06:31:54;20.60;99.90
32428;DHT22;18882;50.952;4.366;2022-08-14T06:34:19;20.70;99.90
32428;DHT22;18882;50.952;4.366;2022-08-14T06:36:45;20.70;99.90
32428;DHT22;18882;50.952;4.366;2022-08-14T06:39:11;20.70;99.90
32428;DHT22;18882;50.952;4.366;2022-08-14T06:41:37;20.90;99.90
32428;DHT22;18882;50.952;4.366;2022-08-14T06:44:04;21.10;99.90
32428;DHT22;18882;50.952;4.366;2022-08-14T06:46:30;21.60;99.90
32428;DHT22;18882;50.952;4.366;2022-08-14T06:48:55;22.00;99.90
32428;DHT22;18882;50.952;4.366;2022-08-14T06:51:22;22.30;99.90
32428;DHT22;18882;50.952;4.366;2022-08-14T06:53:48;22.30;99.90
32428;DHT22;18882;50.952;4.366;2022-08-14T06:56:14;22.20;99.90
32428;DHT22;18882;50.952;4.366;2022-08-14T06:58:39;22.00;99.90
32428;DHT22;18882;50.952;4.366;2022-08-14T07:01:05;22.10;99.90
32428;DHT22;18882;50.952;4.366;2022-08-14T07:03:49;22.10;99.90
32428;DHT22;18882;50.952;4.366;2022-08-14T07:06:33;22.30;99.90
32428;DHT22;18882;50.952;4.366;2022-08-14T07:08:59;22.60;99.90
32428;DHT22;18882;50.952;4.366;2022-08-14T07:11:24;22.70;99.90
32428;DHT22;18882;50.952;4.366;2022-08-14T07:13:50;22.80;99.90
32428;DHT22;18882;50.952;4.366;2022-08-14T07:16:16;23.10;99.90
32428;DHT22;18882;50.952;4.366;2022-08-14T07:18:41;23.30;99.90
32428;DHT22;18882;50.952;4.366;2022-08-14T07:21:08;23.30;99.90
32428;DHT22;18882;50.952;4.366;2022-08-14T07:23:34;23.30;99.90
32428;DHT22;18882;50.952;4.366;2022-08-14T07:26:01;23.30;99.90
32428;DHT22;18882;50.952;4.366;2022-08-14T07:28:35;23.20;99.90
32428;DHT22;18882;50.952;4.366;2022-08-14T07:31:02;23.10;99.90
32428;DHT22;18882;50.952;4.366;2022-08-14T07:33:31;23.10;99.90
32428;DHT22;18882;50.952;4.366;2022-08-14T07:36:02;23.10;99.90
32428;DHT22;18882;50.952;4.366;2022-08-14T07:38:28;23.00;99.90
32428;DHT22;18882;50.952;4.366;2022-08-14T07:40:55;23.10;99.90
32428;DHT22;18882;50.952;4.366;2022-08-14T07:43:21;23.10;99.90
32428;DHT22;18882;50.952;4.366;2022-08-14T07:45:47;23.10;99.90
32428;DHT22;18882;50.952;4.366;2022-08-14T07:48:13;23.20;99.90
32428;DHT22;18882;50.952;4.366;2022-08-14T07:50:39;23.30;99.90
32428;DHT22;18882;50.952;4.366;2022-08-14T07:53:05;23.40;99.90
32428;DHT22;18882;50.952;4.366;2022-08-14T07:55:33;23.70;99.90
32428;DHT22;18882;50.952;4.366;2022-08-14T07:58:00;23.80;99.90
32428;DHT22;18882;50.952;4.366;2022-08-14T08:00:26;24.00;99.90
32428;DHT22;18882;50.952;4.366;2022-08-14T08:02:54;24.40;99.90
32428;DHT22;18882;50.952;4.366;2022-08-14T08:05:22;24.60;99.90
32428;DHT22;18882;50.952;4.366;2022-08-14T08:07:48;24.70;99.90
32428;DHT22;18882;50.952;4.366;2022-08-14T08:10:17;25.00;99.90
32428;DHT22;18882;50.952;4.366;2022-08-14T08:15:49;25.20;99.90
32428;DHT22;18882;50.952;4.366;2022-08-14T08:18:16;25.40;99.90
32428;DHT22;18882;50.952;4.366;2022-08-14T08:20:44;25.40;99.90
32428;DHT22;18882;50.952;4.366;2022-08-14T08:23:12;25.50;99.90
32428;DHT22;18882;50.952;4.366;2022-08-14T08:25:40;25.80;99.90
32428;DHT22;18882;50.952;4.366;2022-08-14T08:28:17;25.90;99.10
32428;DHT22;18882;50.952;4.366;2022-08-14T08:30:54;26.10;99.10
32428;DHT22;18882;50.952;4.366;2022-08-14T08:33:22;26.60;99.30
32428;DHT22;18882;50.952;4.366;2022-08-14T08:35:48;26.60;98.80
32428;DHT22;18882;50.952;4.366;2022-08-14T08:38:21;26.50;98.30
32428;DHT22;18882;50.952;4.366;2022-08-14T08:40:49;26.60;98.40
32428;DHT22;18882;50.952;4.366;2022-08-14T08:45:45;26.60;97.50
32428;DHT22;18882;50.952;4.366;2022-08-14T08:48:14;26.60;98.70
32428;DHT22;18882;50.952;4.366;2022-08-14T08:50:40;26.40;97.40
32428;DHT22;18882;50.952;4.366;2022-08-14T08:53:08;26.70;97.80
32428;DHT22;18882;50.952;4.366;2022-08-14T08:55:42;27.00;98.10
32428;DHT22;18882;50.952;4.366;2022-08-14T08:58:14;27.00;97.50
32428;DHT22;18882;50.952;4.366;2022-08-14T09:00:42;27.30;97.30
32428;DHT22;18882;50.952;4.366;2022-08-14T09:03:14;27.40;96.20
32428;DHT22;18882;50.952;4.366;2022-08-14T09:05:50;27.50;94.80
32428;DHT22;18882;50.952;4.366;2022-08-14T09:08:17;27.60;94.70
32428;DHT22;18882;50.952;4.366;2022-08-14T09:10:44;27.90;95.90
32428;DHT22;18882;50.952;4.366;2022-08-14T09:13:10;28.30;95.60
32428;DHT22;18882;50.952;4.366;2022-08-14T09:15:44;28.20;94.40
32428;DHT22;18882;50.952;4.366;2022-08-14T09:18:11;28.40;95.30
32428;DHT22;18882;50.952;4.366;2022-08-14T09:20:42;28.70;93.20
32428;DHT22;18882;50.952;4.366;2022-08-14T09:23:10;28.90;93.20
32428;DHT22;18882;50.952;4.366;2022-08-14T09:25:37;28.70;93.70
32428;DHT22;18882;50.952;4.366;2022-08-14T09:28:04;28.80;93.10
32428;DHT22;18882;50.952;4.366;2022-08-14T09:30:35;28.80;93.20
32428;DHT22;18882;50.952;4.366;2022-08-14T09:35:29;28.70;93.90
32428;DHT22;18882;50.952;4.366;2022-08-14T09:46:13;28.90;92.00
32428;DHT22;18882;50.952;4.366;2022-08-14T09:48:40;29.00;92.90
32428;DHT22;18882;50.952;4.366;2022-08-14T09:51:06;29.30;92.90
32428;DHT22;18882;50.952;4.366;2022-08-14T09:53:40;29.40;92.10
32428;DHT22;18882;50.952;4.366;2022-08-14T09:56:09;29.30;91.80
32428;DHT22;18882;50.952;4.366;2022-08-14T09:58:38;29.30;92.70
32428;DHT22;18882;50.952;4.366;2022-08-14T10:03:55;29.90;91.50
32428;DHT22;18882;50.952;4.366;2022-08-14T10:06:23;29.70;90.50
32428;DHT22;18882;50.952;4.366;2022-08-14T10:09:13;29.30;91.30
32428;DHT22;18882;50.952;4.366;2022-08-14T10:11:39;28.90;91.00
32428;DHT22;18882;50.952;4.366;2022-08-14T10:16:54;29.70;91.30
32428;DHT22;18882;50.952;4.366;2022-08-14T10:19:23;29.80;89.30
32428;DHT22;18882;50.952;4.366;2022-08-14T10:22:01;29.90;90.20
32428;DHT22;18882;50.952;4.366;2022-08-14T10:24:36;30.40;90.00
32428;DHT22;18882;50.952;4.366;2022-08-14T10:27:16;30.70;89.00
32428;DHT22;18882;50.952;4.366;2022-08-14T10:29:47;31.20;88.30
32428;DHT22;18882;50.952;4.366;2022-08-14T10:32:13;31.10;83.60
32428;DHT22;18882;50.952;4.366;2022-08-14T10:34:39;31.10;83.90
32428;DHT22;18882;50.952;4.366;2022-08-14T10:37:10;31.10;83.80
32428;DHT22;18882;50.952;4.366;2022-08-14T10:39:40;31.60;82.00
32428;DHT22;18882;50.952;4.366;2022-08-14T10:42:11;32.10;77.90
32428;DHT22;18882;50.952;4.366;2022-08-14T10:44:42;32.80;74.90
32428;DHT22;18882;50.952;4.366;2022-08-14T10:47:12;32.90;74.80
32428;DHT22;18882;50.952;4.366;2022-08-14T10:49:56;32.40;77.30
32428;DHT22;18882;50.952;4.366;2022-08-14T10:52:29;32.60;72.30
32428;DHT22;18882;50.952;4.366;2022-08-14T10:55:08;32.20;71.40
32428;DHT22;18882;50.952;4.366;2022-08-14T10:57:48;32.40;72.70
32428;DHT22;18882;50.952;4.366;2022-08-14T11:00:18;32.20;72.90
32428;DHT22;18882;50.952;4.366;2022-08-14T11:02:43;32.40;73.60
32428;DHT22;18882;50.952;4.366;2022-08-14T11:05:17;32.70;74.10
32428;DHT22;18882;50.952;4.366;2022-08-14T11:10:18;32.90;74.40
32428;DHT22;18882;50.952;4.366;2022-08-14T11:12:46;32.70;71.40
32428;DHT22;18882;50.952;4.366;2022-08-14T11:15:21;31.80;72.60
32428;DHT22;18882;50.952;4.366;2022-08-14T11:17:49;31.50;73.90
32428;DHT22;18882;50.952;4.366;2022-08-14T11:20:17;31.40;74.70
32428;DHT22;18882;50.952;4.366;2022-08-14T11:22:44;31.60;73.60
32428;DHT22;18882;50.952;4.366;2022-08-14T11:25:13;31.60;73.80
32428;DHT22;18882;50.952;4.366;2022-08-14T11:27:44;32.00;72.30
32428;DHT22;18882;50.952;4.366;2022-08-14T11:30:14;32.20;72.70
32428;DHT22;18882;50.952;4.366;2022-08-14T11:32:43;32.20;73.60
32428;DHT22;18882;50.952;4.366;2022-08-14T11:35:13;32.40;71.60
32428;DHT22;18882;50.952;4.366;2022-08-14T11:37:59;32.50;72.90
32428;DHT22;18882;50.952;4.366;2022-08-14T11:40:29;32.70;71.70
32428;DHT22;18882;50.952;4.366;2022-08-14T11:42:56;32.50;71.20
32428;DHT22;18882;50.952;4.366;2022-08-14T11:45:28;32.30;68.20
32428;DHT22;18882;50.952;4.366;2022-08-14T11:47:58;32.20;68.20
32428;DHT22;18882;50.952;4.366;2022-08-14T11:50:28;32.10;69.10
32428;DHT22;18882;50.952;4.366;2022-08-14T11:52:56;31.90;69.00
32428;DHT22;18882;50.952;4.366;2022-08-14T11:55:24;31.90;70.20
32428;DHT22;18882;50.952;4.366;2022-08-14T11:58:00;32.10;70.50
32428;DHT22;18882;50.952;4.366;2022-08-14T12:00:28;32.10;69.70
32428;DHT22;18882;50.952;4.366;2022-08-14T12:02:56;32.00;69.30
32428;DHT22;18882;50.952;4.366;2022-08-14T12:05:36;32.00;68.70
32428;DHT22;18882;50.952;4.366;2022-08-14T12:08:03;31.80;68.50
32428;DHT22;18882;50.952;4.366;2022-08-14T12:10:36;31.60;69.80
32428;DHT22;18882;50.952;4.366;2022-08-14T12:13:13;31.80;69.30
32428;DHT22;18882;50.952;4.366;2022-08-14T12:15:41;32.00;70.40
32428;DHT22;18882;50.952;4.366;2022-08-14T12:18:06;31.90;69.30
32428;DHT22;18882;50.952;4.366;2022-08-14T12:20:35;31.80;68.50
32428;DHT22;18882;50.952;4.366;2022-08-14T12:23:04;31.90;69.90
32428;DHT22;18882;50.952;4.366;2022-08-14T12:25:30;32.00;67.80
32428;DHT22;18882;50.952;4.366;2022-08-14T12:28:00;31.80;69.50
32428;DHT22;18882;50.952;4.366;2022-08-14T12:30:38;32.00;70.40
32428;DHT22;18882;50.952;4.366;2022-08-14T12:33:17;32.20;70.80
32428;DHT22;18882;50.952;4.366;2022-08-14T12:35:44;32.40;68.30
32428;DHT22;18882;50.952;4.366;2022-08-14T12:38:11;32.50;67.30
32428;DHT22;18882;50.952;4.366;2022-08-14T12:40:48;32.10;67.60
32428;DHT22;18882;50.952;4.366;2022-08-14T12:43:16;32.10;67.80
32428;DHT22;18882;50.952;4.366;2022-08-14T12:45:49;32.20;69.50
32428;DHT22;18882;50.952;4.366;2022-08-14T12:48:16;32.40;67.50
32428;DHT22;18882;50.952;4.366;2022-08-14T12:50:42;32.50;68.20
32428;DHT22;18882;50.952;4.366;2022-08-14T12:53:09;32.50;68.50
32428;DHT22;18882;50.952;4.366;2022-08-14T12:55:37;32.60;68.10
32428;DHT22;18882;50.952;4.366;2022-08-14T12:58:04;32.80;66.90
32428;DHT22;18882;50.952;4.366;2022-08-14T13:00:38;32.70;64.90
32428;DHT22;18882;50.952;4.366;2022-08-14T13:03:25;32.70;65.00
32428;DHT22;18882;50.952;4.366;2022-08-14T13:05:51;32.80;67.00
32428;DHT22;18882;50.952;4.366;2022-08-14T13:08:17;32.70;63.10
32428;DHT22;18882;50.952;4.366;2022-08-14T13:10:44;32.30;63.60
32428;DHT22;18882;50.952;4.366;2022-08-14T13:13:11;32.20;64.10
32428;DHT22;18882;50.952;4.366;2022-08-14T13:15:40;32.30;65.50
32428;DHT22;18882;50.952;4.366;2022-08-14T13:18:08;32.50;64.70
32428;DHT22;18882;50.952;4.366;2022-08-14T13:20:35;32.70;64.20
32428;DHT22;18882;50.952;4.366;2022-08-14T13:23:02;32.70;65.30
32428;DHT22;18882;50.952;4.366;2022-08-14T13:25:28;32.90;67.10
32428;DHT22;18882;50.952;4.366;2022-08-14T13:27:56;33.10;64.10
32428;DHT22;18882;50.952;4.366;2022-08-14T13:30:24;33.20;62.70
32428;DHT22;18882;50.952;4.366;2022-08-14T13:32:52;33.20;63.90
32428;DHT22;18882;50.952;4.366;2022-08-14T13:35:18;33.40;63.60
32428;DHT22;18882;50.952;4.366;2022-08-14T13:37:45;33.30;62.60
32428;DHT22;18882;50.952;4.366;2022-08-14T13:40:17;33.40;63.50
32428;DHT22;18882;50.952;4.366;2022-08-14T13:42:46;33.50;65.60
32428;DHT22;18882;50.952;4.366;2022-08-14T13:45:12;33.40;64.40
32428;DHT22;18882;50.952;4.366;2022-08-14T13:47:40;33.40;65.40
32428;DHT22;18882;50.952;4.366;2022-08-14T13:50:07;33.40;64.00
32428;DHT22;18882;50.952;4.366;2022-08-14T13:52:49;33.40;63.80
32428;DHT22;18882;50.952;4.366;2022-08-14T13:55:20;33.00;65.30
32428;DHT22;18882;50.952;4.366;2022-08-14T13:57:47;33.10;65.20
32428;DHT22;18882;50.952;4.366;2022-08-14T14:00:14;33.10;65.50
32428;DHT22;18882;50.952;4.366;2022-08-14T14:02:42;33.10;65.70
32428;DHT22;18882;50.952;4.366;2022-08-14T14:05:12;33.20;65.30
32428;DHT22;18882;50.952;4.366;2022-08-14T14:07:38;33.30;66.00
32428;DHT22;18882;50.952;4.366;2022-08-14T14:10:11;33.40;64.80
32428;DHT22;18882;50.952;4.366;2022-08-14T14:12:38;33.30;64.20
32428;DHT22;18882;50.952;4.366;2022-08-14T14:15:17;33.40;64.70
32428;DHT22;18882;50.952;4.366;2022-08-14T14:17:44;33.60;63.90
32428;DHT22;18882;50.952;4.366;2022-08-14T14:20:15;33.60;64.50
32428;DHT22;18882;50.952;4.366;2022-08-14T14:22:43;33.60;65.00
32428;DHT22;18882;50.952;4.366;2022-08-14T14:25:10;33.70;64.10
32428;DHT22;18882;50.952;4.366;2022-08-14T14:27:39;33.50;66.20
32428;DHT22;18882;50.952;4.366;2022-08-14T14:30:07;33.60;63.60
32428;DHT22;18882;50.952;4.366;2022-08-14T14:32:37;33.70;63.80
32428;DHT22;18882;50.952;4.366;2022-08-14T14:35:09;33.80;64.90
32428;DHT22;18882;50.952;4.366;2022-08-14T14:37:39;33.70;65.30
32428;DHT22;18882;50.952;4.366;2022-08-14T14:40:06;33.80;64.90
32428;DHT22;18882;50.952;4.366;2022-08-14T14:42:32;33.50;63.60
32428;DHT22;18882;50.952;4.366;2022-08-14T14:45:12;33.40;65.60
32428;DHT22;18882;50.952;4.366;2022-08-14T14:47:51;33.60;66.00
32428;DHT22;18882;50.952;4.366;2022-08-14T14:50:18;33.70;65.60
32428;DHT22;18882;50.952;4.366;2022-08-14T14:52:45;33.90;65.30
32428;DHT22;18882;50.952;4.366;2022-08-14T14:55:12;33.60;65.70
32428;DHT22;18882;50.952;4.366;2022-08-14T14:57:38;33.10;64.50
32428;DHT22;18882;50.952;4.366;2022-08-14T15:00:10;33.40;67.00
32428;DHT22;18882;50.952;4.366;2022-08-14T15:02:42;33.40;67.40
32428;DHT22;18882;50.952;4.366;2022-08-14T15:05:09;33.50;66.40
32428;DHT22;18882;50.952;4.366;2022-08-14T15:07:36;33.50;64.80
32428;DHT22;18882;50.952;4.366;2022-08-14T15:10:04;33.70;63.90
32428;DHT22;18882;50.952;4.366;2022-08-14T15:12:31;33.70;64.50
32428;DHT22;18882;50.952;4.366;2022-08-14T15:14:57;33.60;64.00
32428;DHT22;18882;50.952;4.366;2022-08-14T15:17:23;33.70;64.00
32428;DHT22;18882;50.952;4.366;2022-08-14T15:19:49;33.60;63.90
32428;DHT22;18882;50.952;4.366;2022-08-14T15:22:16;33.50;64.30
32428;DHT22;18882;50.952;4.366;2022-08-14T15:24:42;33.50;64.20
32428;DHT22;18882;50.952;4.366;2022-08-14T15:27:08;33.50;65.10
32428;DHT22;18882;50.952;4.366;2022-08-14T15:29:34;33.60;65.60
32428;DHT22;18882;50.952;4.366;2022-08-14T15:32:09;33.50;65.50
32428;DHT22;18882;50.952;4.366;2022-08-14T15:34:35;33.30;66.00
32428;DHT22;18882;50.952;4.366;2022-08-14T15:37:03;33.30;67.90
32428;DHT22;18882;50.952;4.366;2022-08-14T15:39:32;33.30;66.20
32428;DHT22;18882;50.952;4.366;2022-08-14T15:41:58;33.40;64.00
32428;DHT22;18882;50.952;4.366;2022-08-14T15:44:26;33.30;67.00
32428;DHT22;18882;50.952;4.366;2022-08-14T15:46:53;33.30;65.50
32428;DHT22;18882;50.952;4.366;2022-08-14T15:49:19;33.40;65.20
32428;DHT22;18882;50.952;4.366;2022-08-14T15:51:45;33.40;67.20
32428;DHT22;18882;50.952;4.366;2022-08-14T15:54:11;33.40;68.30
32428;DHT22;18882;50.952;4.366;2022-08-14T15:56:36;33.40;68.90
32428;DHT22;18882;50.952;4.366;2022-08-14T15:59:03;33.50;67.70
32428;DHT22;18882;50.952;4.366;2022-08-14T16:01:28;33.50;69.60
32428;DHT22;18882;50.952;4.366;2022-08-14T16:03:55;33.40;69.10